Time;durP1;ratioP1;P1;durP2;ratioP2;P2;SDS_P1;SDS_P2;PMS_P1;PMS_P2;Temp;Humidity;BMP_temperature;BMP_pressure;BME280_temperature;BME280_humidity;BME280_pressure;Samples;Min_cycle;Max_cycle;Signal;HPM_P1;HPM_P2
2022/01/17 00:01:33;;;;;;;11.73;7.88;;;4.80;99.90;;;;;;5048680;28;20197;-69
2022/01/17 00:04:01;;;;;;;12.18;7.47;;;4.80;99.90;;;;;;5034042;28;20232;-69
2022/01/17 00:06:31;;;;;;;10.25;6.93;;;4.80;99.90;;;;;;5052385;28;20758;-69
2022/01/17 00:08:59;;;;;;;10.77;7.38;;;4.80;99.90;;;;;;5051905;28;20319;-69
2022/01/17 00:11:27;;;;;;;12.50;8.27;;;4.80;99.90;;;;;;5052005;28;20246;-69
2022/01/17 00:13:56;;;;;;;11.25;8.00;;;4.80;99.90;;;;;;5051475;28;20289;-69
2022/01/17 00:16:33;;;;;;;9.70;7.10;;;4.80;99.90;;;;;;5051594;28;20217;-69
2022/01/17 00:19:30;;;;;;;11.02;7.05;;;4.80;99.90;;;;;;5051091;28;20246;-69
2022/01/17 00:21:59;;;;;;;10.63;6.82;;;4.80;99.90;;;;;;5052034;28;20235;-69
2022/01/17 00:24:27;;;;;;;11.30;7.35;;;4.80;99.90;;;;;;5051044;28;20258;-69
2022/01/17 00:26:56;;;;;;;12.30;7.63;;;4.80;99.90;;;;;;5051326;28;20216;-69
2022/01/17 00:29:26;;;;;;;10.13;7.60;;;4.80;99.90;;;;;;5050914;28;20229;-69
2022/01/17 00:31:55;;;;;;;9.20;6.90;;;4.80;99.90;;;;;;5051016;28;20195;-69
2022/01/17 00:34:24;;;;;;;9.55;7.25;;;4.80;99.90;;;;;;5050661;28;20845;-69
2022/01/17 00:36:52;;;;;;;10.13;7.07;;;4.80;99.90;;;;;;5051132;28;20224;-69
2022/01/17 00:39:21;;;;;;;9.48;6.85;;;4.80;99.90;;;;;;5050857;28;20239;-69
2022/01/17 00:41:50;;;;;;;9.85;6.70;;;4.80;99.90;;;;;;5050991;28;20223;-69
2022/01/17 00:44:21;;;;;;;9.00;6.10;;;4.80;99.90;;;;;;5050403;28;20624;-69
2022/01/17 00:46:49;;;;;;;10.23;7.80;;;4.80;99.90;;;;;;5050573;28;20266;-69
2022/01/17 00:49:19;;;;;;;10.80;7.70;;;4.80;99.90;;;;;;5050607;28;20244;-69
2022/01/17 00:51:47;;;;;;;10.15;7.70;;;4.80;99.90;;;;;;5051135;28;20283;-69
2022/01/17 00:54:15;;;;;;;12.00;7.25;;;4.80;99.90;;;;;;5050466;28;20216;-69
2022/01/17 00:56:45;;;;;;;9.57;6.57;;;4.80;99.90;;;;;;5050037;28;20255;-69
2022/01/17 00:59:13;;;;;;;11.50;6.93;;;4.80;99.90;;;;;;5050068;28;20757;-69
2022/01/17 01:01:41;;;;;;;13.07;8.55;;;4.80;99.90;;;;;;5049058;28;20247;-69
2022/01/17 01:04:09;;;;;;;10.32;7.38;;;4.80;99.90;;;;;;5049970;28;20220;-69
2022/01/17 01:06:38;;;;;;;12.70;7.80;;;4.80;99.90;;;;;;5050795;28;20236;-69
2022/01/17 01:09:06;;;;;;;10.60;6.55;;;4.80;99.90;;;;;;5050304;28;20302;-69
2022/01/17 01:11:36;;;;;;;10.00;7.90;;;4.80;99.90;;;;;;5052693;28;20192;-69
2022/01/17 01:14:06;;;;;;;10.90;7.38;;;4.80;99.90;;;;;;5049758;28;20216;-69
2022/01/17 01:16:36;;;;;;;10.00;6.90;;;4.80;99.90;;;;;;5049981;28;20748;-69
2022/01/17 01:27:42;;;;;;;10.52;6.65;;;4.80;99.90;;;;;;5050559;28;20305;-69
2022/01/17 01:30:15;;;;;;;11.60;6.55;;;4.90;99.90;;;;;;5050212;28;20274;-69
2022/01/17 01:32:48;;;;;;;11.43;6.88;;;4.80;99.90;;;;;;5050209;28;20200;-69
2022/01/17 01:35:21;;;;;;;9.57;6.35;;;4.90;99.90;;;;;;5050095;28;20262;-69
2022/01/17 01:37:49;;;;;;;8.95;6.30;;;4.80;99.90;;;;;;5050640;28;20239;-69
2022/01/17 01:40:20;;;;;;;11.13;7.30;;;4.80;99.90;;;;;;5049919;28;20220;-69
2022/01/17 01:42:51;;;;;;;13.95;7.45;;;4.80;99.90;;;;;;5049551;28;20192;-69
2022/01/17 01:45:21;;;;;;;9.57;6.97;;;4.90;99.90;;;;;;5048743;28;20354;-69
2022/01/17 01:47:49;;;;;;;9.25;6.30;;;4.90;99.90;;;;;;5031698;28;20236;-69
2022/01/17 01:50:18;;;;;;;10.75;7.60;;;4.90;99.90;;;;;;5049460;28;20258;-69
2022/01/17 01:52:47;;;;;;;11.50;7.53;;;4.90;99.90;;;;;;5049988;28;20196;-70
2022/01/17 01:55:17;;;;;;;9.38;7.10;;;4.90;99.90;;;;;;5048938;28;20239;-69
2022/01/17 01:57:46;;;;;;;9.93;7.88;;;4.90;99.90;;;;;;5049723;28;20286;-69
2022/01/17 02:00:15;;;;;;;10.07;7.65;;;4.90;99.90;;;;;;5049128;28;20653;-69
2022/01/17 02:02:45;;;;;;;8.65;6.88;;;4.90;99.90;;;;;;5036867;28;20197;-69
2022/01/17 02:05:13;;;;;;;9.57;6.93;;;4.90;99.90;;;;;;5049156;28;20220;-69
2022/01/17 02:07:44;;;;;;;9.75;7.75;;;4.90;99.90;;;;;;5049494;28;20317;-69
2022/01/17 02:10:13;;;;;;;9.85;7.32;;;4.90;99.90;;;;;;5048033;28;20798;-69
2022/01/17 02:12:41;;;;;;;7.53;5.95;;;4.90;99.90;;;;;;5046730;28;20224;-69
2022/01/17 02:15:13;;;;;;;12.43;6.95;;;4.90;99.90;;;;;;5048828;28;20216;-69
2022/01/17 02:17:45;;;;;;;8.35;7.10;;;4.90;99.90;;;;;;5048993;28;20690;-69
2022/01/17 02:20:21;;;;;;;11.48;7.97;;;4.80;99.90;;;;;;5048933;28;20741;-69
2022/01/17 02:22:49;;;;;;;9.00;6.47;;;4.80;99.90;;;;;;5049170;28;20258;-69
2022/01/17 02:25:18;;;;;;;9.80;7.22;;;4.90;99.90;;;;;;5048285;28;20309;-69
2022/01/17 02:27:48;;;;;;;11.07;7.38;;;4.90;99.90;;;;;;5046004;28;20733;-69
2022/01/17 02:30:22;;;;;;;9.65;6.68;;;4.90;99.90;;;;;;5049829;28;20271;-69
2022/01/17 02:32:50;;;;;;;12.45;7.65;;;4.90;99.90;;;;;;5050435;28;20227;-69
2022/01/17 02:35:21;;;;;;;10.70;6.90;;;4.90;99.90;;;;;;5048599;28;20226;-69
2022/01/17 02:37:50;;;;;;;8.45;6.60;;;4.90;99.90;;;;;;5048803;28;20274;-69
2022/01/17 02:40:19;;;;;;;8.90;6.38;;;4.90;99.90;;;;;;5030278;28;20267;-69
2022/01/17 02:42:50;;;;;;;10.45;6.70;;;4.80;99.90;;;;;;5049004;28;20251;-69
2022/01/17 02:45:31;;;;;;;8.85;6.93;;;4.90;99.90;;;;;;5048306;28;20273;-69
2022/01/17 02:48:03;;;;;;;10.60;7.35;;;4.90;99.90;;;;;;5034821;28;20235;-69
2022/01/17 02:50:33;;;;;;;10.70;7.65;;;4.90;99.90;;;;;;5048961;28;20297;-69
2022/01/17 02:53:03;;;;;;;13.30;7.90;;;4.90;99.90;;;;;;5048769;28;20606;-69
2022/01/17 02:55:31;;;;;;;13.75;9.25;;;4.90;99.90;;;;;;5049770;28;20193;-69
2022/01/17 02:58:00;;;;;;;11.20;8.18;;;4.90;99.90;;;;;;5050186;28;20213;-69
2022/01/17 03:00:28;;;;;;;11.38;7.22;;;4.90;99.90;;;;;;5049752;28;20698;-69
2022/01/17 03:02:56;;;;;;;10.25;7.45;;;4.90;99.90;;;;;;5044343;28;20201;-69
2022/01/17 03:05:25;;;;;;;10.85;7.88;;;4.90;99.90;;;;;;5048637;28;20216;-69
2022/01/17 03:07:54;;;;;;;10.93;7.25;;;4.90;99.90;;;;;;5048626;28;20235;-69
2022/01/17 03:10:34;;;;;;;14.32;7.35;;;4.90;99.90;;;;;;5048223;28;20723;-69
2022/01/17 03:13:03;;;;;;;10.70;8.38;;;4.90;99.90;;;;;;5040180;28;20296;-69
2022/01/17 03:15:31;;;;;;;11.00;8.55;;;4.90;99.90;;;;;;5048754;28;20192;-69
2022/01/17 03:17:59;;;;;;;11.50;7.85;;;4.90;99.90;;;;;;5047804;28;20247;-69
2022/01/17 03:20:29;;;;;;;10.68;8.13;;;4.90;99.90;;;;;;5049430;28;20342;-69
2022/01/17 03:22:58;;;;;;;11.15;7.50;;;4.90;99.90;;;;;;5052672;28;20246;-69
2022/01/17 03:25:27;;;;;;;12.45;8.35;;;4.90;99.90;;;;;;5052308;28;20808;-69
2022/01/17 03:27:55;;;;;;;8.80;6.60;;;4.90;99.90;;;;;;5052449;28;20275;-69
2022/01/17 03:30:23;;;;;;;11.73;6.70;;;4.90;99.90;;;;;;5052399;28;20322;-69
2022/01/17 03:32:52;;;;;;;10.52;7.35;;;4.90;99.90;;;;;;5047613;28;20246;-69
2022/01/17 03:35:20;;;;;;;10.55;7.50;;;4.90;99.90;;;;;;5051732;28;20686;-69
2022/01/17 03:37:48;;;;;;;11.85;7.55;;;4.90;99.90;;;;;;5052369;28;20208;-69
2022/01/17 03:40:17;;;;;;;8.80;7.18;;;4.90;99.90;;;;;;5051552;28;20216;-69
2022/01/17 03:42:46;;;;;;;10.23;7.13;;;4.90;99.90;;;;;;5052197;28;20212;-69
2022/01/17 03:45:14;;;;;;;10.10;6.90;;;4.90;99.90;;;;;;5030660;28;20578;-69
2022/01/17 03:47:47;;;;;;;10.35;6.72;;;4.90;99.90;;;;;;5051676;28;20243;-69
2022/01/17 03:50:19;;;;;;;10.80;7.55;;;4.90;99.90;;;;;;5051937;28;20212;-69
2022/01/17 03:52:47;;;;;;;9.85;6.80;;;4.90;99.90;;;;;;5054585;28;20181;-69
2022/01/17 03:55:19;;;;;;;12.73;8.98;;;4.90;99.90;;;;;;5051461;28;20251;-69
2022/01/17 03:57:47;;;;;;;11.23;8.07;;;4.90;99.90;;;;;;5041685;28;20307;-69
2022/01/17 04:00:19;;;;;;;9.80;7.72;;;4.90;99.90;;;;;;5051651;28;20248;-69
2022/01/17 04:02:47;;;;;;;13.73;7.82;;;4.90;99.90;;;;;;5048123;28;20255;-69
2022/01/17 04:05:16;;;;;;;9.88;6.95;;;4.90;99.90;;;;;;5042632;28;20227;-69
2022/01/17 04:07:44;;;;;;;8.85;6.50;;;4.90;99.90;;;;;;5051897;28;20624;-69
2022/01/17 04:10:13;;;;;;;13.32;8.43;;;4.90;99.90;;;;;;5033572;28;20660;-69
2022/01/17 04:12:46;;;;;;;8.27;6.65;;;4.90;99.90;;;;;;5051297;28;20193;-69
2022/01/17 04:15:15;;;;;;;9.02;6.97;;;4.90;99.90;;;;;;5051244;28;20656;-69
2022/01/17 04:17:44;;;;;;;8.80;5.60;;;4.90;99.90;;;;;;5050978;28;20226;-69
2022/01/17 04:20:24;;;;;;;8.90;7.10;;;4.90;99.90;;;;;;5033348;28;20705;-69
2022/01/17 04:22:54;;;;;;;10.00;7.93;;;4.90;99.90;;;;;;5051538;28;20266;-69
2022/01/17 04:25:23;;;;;;;9.98;7.07;;;4.90;99.90;;;;;;5045666;28;20224;-69
2022/01/17 04:27:53;;;;;;;9.52;7.28;;;4.90;99.90;;;;;;5050532;28;20286;-69
2022/01/17 04:30:21;;;;;;;11.52;7.90;;;4.90;99.90;;;;;;5053258;28;20242;-69
2022/01/17 04:32:50;;;;;;;8.95;6.60;;;4.90;99.90;;;;;;5050996;28;20231;-69
2022/01/17 04:35:21;;;;;;;9.93;6.78;;;4.90;99.90;;;;;;5051945;28;20250;-69
2022/01/17 04:37:51;;;;;;;9.70;7.18;;;4.90;99.90;;;;;;5051601;28;20212;-69
2022/01/17 04:40:19;;;;;;;11.10;7.00;;;4.90;99.90;;;;;;5051103;28;20220;-69
2022/01/17 04:42:49;;;;;;;10.02;7.47;;;4.90;99.90;;;;;;5051676;28;20681;-69
2022/01/17 04:45:20;;;;;;;12.30;8.10;;;4.90;99.90;;;;;;5051284;28;20259;-69
2022/01/17 04:47:50;;;;;;;11.30;7.63;;;4.90;99.90;;;;;;5051036;28;20231;-69
2022/01/17 04:50:20;;;;;;;14.48;9.50;;;4.90;99.90;;;;;;5050893;28;20684;-69
2022/01/17 04:52:48;;;;;;;9.55;6.72;;;4.90;99.90;;;;;;5035981;28;20189;-69
2022/01/17 04:55:19;;;;;;;9.35;8.00;;;4.90;99.90;;;;;;5050687;28;20267;-69
2022/01/17 04:57:48;;;;;;;9.73;7.80;;;4.90;99.90;;;;;;5044435;28;20216;-69
2022/01/17 05:00:21;;;;;;;9.48;7.15;;;4.90;99.90;;;;;;5050371;28;20342;-69
2022/01/17 05:02:49;;;;;;;10.80;7.30;;;4.90;99.90;;;;;;5050717;28;20209;-69
2022/01/17 05:05:18;;;;;;;10.15;7.90;;;4.90;99.90;;;;;;5050355;28;20220;-69
2022/01/17 05:07:46;;;;;;;10.85;7.38;;;4.90;99.90;;;;;;5050712;28;20582;-69
2022/01/17 05:10:15;;;;;;;11.00;6.70;;;4.90;99.90;;;;;;5048703;28;20354;-69
2022/01/17 05:12:45;;;;;;;10.38;7.35;;;4.90;99.90;;;;;;5035187;28;20185;-69
2022/01/17 05:15:24;;;;;;;13.13;8.30;;;4.90;99.90;;;;;;5050803;28;20216;-69
2022/01/17 05:18:00;;;;;;;9.73;7.35;;;4.90;99.90;;;;;;5037304;28;20677;-69
2022/01/17 05:20:29;;;;;;;11.70;7.22;;;4.90;99.90;;;;;;5050462;28;20216;-69
2022/01/17 05:22:57;;;;;;;12.32;8.10;;;4.90;99.90;;;;;;5050259;28;20867;-69
2022/01/17 05:25:25;;;;;;;11.95;8.30;;;4.90;99.90;;;;;;5049728;28;20667;-69
2022/01/17 05:27:54;;;;;;;14.23;10.07;;;4.90;99.90;;;;;;5049942;28;20299;-69
2022/01/17 05:30:24;;;;;;;12.07;8.15;;;4.90;99.90;;;;;;5049813;28;20239;-69
2022/01/17 05:32:54;;;;;;;11.75;7.90;;;4.90;99.90;;;;;;5049643;28;20227;-69
2022/01/17 05:35:22;;;;;;;12.80;8.25;;;4.90;99.90;;;;;;5049518;28;20259;-69
2022/01/17 05:37:51;;;;;;;14.60;9.68;;;4.90;99.90;;;;;;5049823;28;20213;-69
2022/01/17 05:40:19;;;;;;;13.95;9.60;;;4.90;99.90;;;;;;5031897;28;20640;-69
2022/01/17 05:42:48;;;;;;;12.15;7.88;;;4.90;99.90;;;;;;5046154;28;20551;-69
2022/01/17 05:45:17;;;;;;;15.88;9.13;;;4.90;99.90;;;;;;5048238;28;20300;-69
2022/01/17 05:47:46;;;;;;;11.02;7.47;;;4.90;99.90;;;;;;5048909;28;20274;-69
2022/01/17 05:50:17;;;;;;;11.00;7.82;;;4.90;99.90;;;;;;5049482;28;20297;-69
2022/01/17 05:52:46;;;;;;;13.05;8.52;;;4.90;99.90;;;;;;5049851;28;20197;-69
2022/01/17 05:55:17;;;;;;;14.65;8.57;;;4.90;99.90;;;;;;5049208;28;20766;-69
2022/01/17 05:57:45;;;;;;;7.70;6.78;;;4.90;99.90;;;;;;5047922;28;20682;-69
2022/01/17 06:00:16;;;;;;;11.88;8.82;;;4.90;99.90;;;;;;5049648;28;20290;-69
2022/01/17 06:02:46;;;;;;;9.90;7.75;;;4.90;99.90;;;;;;5050914;28;20216;-69
2022/01/17 06:05:16;;;;;;;13.77;9.27;;;4.90;99.90;;;;;;5050846;28;20274;-69
2022/01/17 06:07:44;;;;;;;14.38;9.20;;;4.90;99.90;;;;;;5050427;28;20693;-69
2022/01/17 06:10:12;;;;;;;10.50;8.73;;;4.90;99.90;;;;;;5049309;28;20227;-69
2022/01/17 06:12:40;;;;;;;15.90;8.30;;;4.90;99.90;;;;;;5049835;28;20215;-69
2022/01/17 06:15:09;;;;;;;11.15;8.07;;;4.90;99.90;;;;;;5049621;28;20278;-69
2022/01/17 06:17:37;;;;;;;10.85;7.60;;;4.90;99.90;;;;;;5049515;28;20220;-69
2022/01/17 06:20:06;;;;;;;15.13;8.68;;;4.90;99.90;;;;;;5041408;28;20722;-69
2022/01/17 06:22:36;;;;;;;11.10;7.22;;;4.90;99.90;;;;;;5049803;28;20192;-69
2022/01/17 06:25:04;;;;;;;13.73;8.75;;;4.90;99.90;;;;;;5048852;28;20220;-69
2022/01/17 06:27:33;;;;;;;13.18;9.55;;;4.90;99.90;;;;;;5049235;28;20212;-69
2022/01/17 06:30:01;;;;;;;14.90;9.27;;;4.90;99.90;;;;;;5048755;28;20220;-69
2022/01/17 06:32:30;;;;;;;14.45;9.70;;;4.90;99.90;;;;;;5050022;28;20189;-69
2022/01/17 06:34:59;;;;;;;14.75;10.05;;;4.90;99.90;;;;;;5050805;28;20212;-69
2022/01/17 06:37:27;;;;;;;8.90;7.25;;;4.90;99.90;;;;;;5049338;28;20625;-69
2022/01/17 06:39:57;;;;;;;12.50;8.25;;;4.90;99.90;;;;;;5048264;28;20574;-69
2022/01/17 06:42:25;;;;;;;9.30;7.50;;;4.90;99.90;;;;;;5043473;28;20284;-69
2022/01/17 06:44:53;;;;;;;14.15;9.00;;;4.90;99.90;;;;;;5047157;28;20772;-69
2022/01/17 06:47:22;;;;;;;11.68;8.75;;;4.90;99.90;;;;;;5048910;28;20223;-69
2022/01/17 06:49:50;;;;;;;15.00;10.93;;;4.90;99.90;;;;;;5048800;28;20578;-69
2022/01/17 06:52:18;;;;;;;10.38;7.70;;;4.90;99.90;;;;;;5048768;28;20219;-69
2022/01/17 06:54:47;;;;;;;13.07;9.60;;;4.90;99.90;;;;;;5045972;28;20277;-69
2022/01/17 06:57:16;;;;;;;13.25;9.13;;;4.90;99.90;;;;;;5048384;28;20208;-69
2022/01/17 06:59:44;;;;;;;11.90;7.97;;;4.90;99.90;;;;;;5048414;28;20706;-69
2022/01/17 07:02:12;;;;;;;13.18;8.07;;;4.90;99.90;;;;;;5039461;28;20699;-69
2022/01/17 07:04:40;;;;;;;12.55;8.10;;;5.00;99.90;;;;;;5045112;28;20635;-69
2022/01/17 07:07:09;;;;;;;11.45;8.18;;;4.90;99.90;;;;;;5048942;28;20613;-69
2022/01/17 07:09:37;;;;;;;9.80;7.38;;;4.90;99.90;;;;;;5047975;28;20629;-69
2022/01/17 07:12:07;;;;;;;13.02;8.45;;;4.90;99.90;;;;;;5040491;28;20658;-69
2022/01/17 07:14:41;;;;;;;10.40;7.78;;;4.90;99.90;;;;;;5048097;28;20258;-69
2022/01/17 07:17:09;;;;;;;12.93;7.50;;;4.90;99.90;;;;;;5047931;28;20216;-69
2022/01/17 07:19:38;;;;;;;11.35;8.05;;;5.00;99.90;;;;;;5047802;28;20621;-69
2022/01/17 07:22:07;;;;;;;11.10;8.10;;;4.90;99.90;;;;;;5048645;28;20196;-69
2022/01/17 07:24:39;;;;;;;11.45;7.95;;;5.00;99.90;;;;;;5047413;28;20231;-69
2022/01/17 07:27:08;;;;;;;9.18;7.03;;;5.00;99.90;;;;;;5047845;28;20674;-69
2022/01/17 07:29:38;;;;;;;13.00;7.72;;;4.90;99.90;;;;;;5048176;28;20227;-69
2022/01/17 07:32:08;;;;;;;16.15;9.95;;;4.90;99.90;;;;;;5038262;28;20569;-69
2022/01/17 07:34:36;;;;;;;11.48;7.18;;;5.00;99.90;;;;;;5049056;28;20243;-69
2022/01/17 07:37:05;;;;;;;15.32;8.27;;;4.90;99.90;;;;;;5050729;28;20212;-69
2022/01/17 07:39:33;;;;;;;10.63;7.70;;;5.00;99.90;;;;;;5044281;28;20260;-69
2022/01/17 07:42:01;;;;;;;13.10;9.00;;;4.90;99.90;;;;;;5039629;28;20188;-69
2022/01/17 07:44:30;;;;;;;9.85;7.95;;;4.90;99.90;;;;;;5042325;28;20244;-69
2022/01/17 07:47:01;;;;;;;11.23;8.20;;;5.00;99.90;;;;;;5043677;28;20224;-69
2022/01/17 07:49:30;;;;;;;16.63;9.02;;;4.90;99.90;;;;;;5048130;28;20228;-69
2022/01/17 07:51:59;;;;;;;13.73;8.95;;;5.00;99.90;;;;;;5049033;28;20196;-69
2022/01/17 07:54:29;;;;;;;11.50;8.18;;;4.90;99.90;;;;;;5051077;28;20593;-69
2022/01/17 07:56:57;;;;;;;10.45;7.63;;;4.90;99.90;;;;;;5047115;28;20220;-69
2022/01/17 07:59:26;;;;;;;12.48;8.20;;;5.00;99.90;;;;;;5047877;28;20270;-69
2022/01/17 08:01:54;;;;;;;16.92;9.63;;;4.90;99.90;;;;;;5048027;28;20196;-69
2022/01/17 08:04:24;;;;;;;11.20;8.10;;;5.00;99.90;;;;;;5032440;28;20213;-69
2022/01/17 08:06:52;;;;;;;12.93;9.05;;;4.90;99.90;;;;;;5030318;28;20274;-69
2022/01/17 08:09:22;;;;;;;12.82;8.57;;;4.90;99.90;;;;;;5051670;28;20262;-69
2022/01/17 08:12:08;;;;;;;9.70;7.47;;;5.00;99.90;;;;;;5051033;28;20250;-69
2022/01/17 08:14:36;;;;;;;16.33;8.75;;;5.00;99.90;;;;;;5051268;28;20577;-69
2022/01/17 08:17:05;;;;;;;15.10;9.57;;;4.90;99.90;;;;;;5050894;28;20216;-69
2022/01/17 08:19:34;;;;;;;12.48;8.73;;;5.00;99.90;;;;;;5050974;28;20216;-69
2022/01/17 08:22:05;;;;;;;16.15;8.68;;;4.90;99.90;;;;;;5050419;28;20184;-69
2022/01/17 08:24:34;;;;;;;11.50;8.00;;;4.90;99.90;;;;;;5048394;28;20786;-69
2022/01/17 08:27:03;;;;;;;18.10;10.50;;;5.00;99.90;;;;;;5051050;28;20251;-69
2022/01/17 08:29:34;;;;;;;10.65;7.80;;;5.00;99.90;;;;;;5050736;28;20277;-69
2022/01/17 08:32:05;;;;;;;13.68;8.48;;;5.00;99.90;;;;;;5043704;28;20263;-69
2022/01/17 08:34:35;;;;;;;13.73;8.60;;;5.00;99.90;;;;;;5043014;28;20247;-69
2022/01/17 08:37:04;;;;;;;17.92;8.85;;;5.00;99.90;;;;;;5051491;28;20216;-69
2022/01/17 08:39:33;;;;;;;12.00;8.95;;;5.00;99.90;;;;;;5051045;28;20251;-69
2022/01/17 08:42:07;;;;;;;16.90;9.43;;;5.00;99.90;;;;;;5032652;28;20192;-69
2022/01/17 08:44:35;;;;;;;13.15;8.75;;;5.00;99.90;;;;;;5050457;28;20220;-69
2022/01/17 08:47:03;;;;;;;17.60;9.18;;;5.00;99.90;;;;;;5050684;28;20219;-69
2022/01/17 08:49:31;;;;;;;11.40;7.47;;;5.00;99.90;;;;;;5050452;28;20231;-69
2022/01/17 08:52:01;;;;;;;12.52;8.35;;;5.00;99.90;;;;;;5051030;28;20197;-69
2022/01/17 08:54:29;;;;;;;16.13;9.10;;;5.00;99.90;;;;;;5049870;28;20278;-69
2022/01/17 08:56:57;;;;;;;16.58;10.35;;;5.00;99.90;;;;;;5032391;28;20240;-69
2022/01/17 08:59:28;;;;;;;18.42;10.20;;;5.00;99.90;;;;;;5050567;28;20701;-69
2022/01/17 09:01:56;;;;;;;12.35;8.18;;;5.00;99.90;;;;;;5049251;28;20245;-69
2022/01/17 09:04:25;;;;;;;13.60;9.15;;;5.00;99.90;;;;;;5050450;28;20227;-69
2022/01/17 09:06:53;;;;;;;13.57;8.68;;;5.00;99.90;;;;;;5051133;28;20278;-69
2022/01/17 09:09:22;;;;;;;12.52;8.18;;;5.00;99.90;;;;;;5032693;28;20605;-69
2022/01/17 09:11:50;;;;;;;16.10;9.02;;;5.00;99.90;;;;;;5045639;28;20283;-69
2022/01/17 09:14:18;;;;;;;13.52;9.85;;;5.00;99.90;;;;;;5052086;28;20270;-69
2022/01/17 09:16:46;;;;;;;13.77;8.25;;;5.00;99.90;;;;;;5045607;28;20271;-69
2022/01/17 09:19:17;;;;;;;16.50;9.88;;;5.00;99.90;;;;;;5032710;28;20236;-69
2022/01/17 09:21:45;;;;;;;13.35;8.80;;;5.00;99.90;;;;;;5051465;28;20216;-69
2022/01/17 09:24:13;;;;;;;14.52;9.00;;;5.00;99.90;;;;;;5051012;28;20228;-69
2022/01/17 09:26:43;;;;;;;12.55;8.60;;;5.00;99.90;;;;;;5050880;28;20274;-69
2022/01/17 09:29:11;;;;;;;16.85;9.68;;;5.00;99.90;;;;;;5050753;28;20266;-69
2022/01/17 09:31:42;;;;;;;15.48;9.82;;;5.00;99.90;;;;;;5051036;28;20196;-69
2022/01/17 09:34:10;;;;;;;16.13;10.40;;;5.00;99.90;;;;;;5022576;28;20238;-69
2022/01/17 09:36:38;;;;;;;18.00;10.13;;;5.00;99.90;;;;;;5050521;28;20212;-69
2022/01/17 09:39:09;;;;;;;15.10;8.85;;;5.00;99.90;;;;;;5048088;28;20231;-69
2022/01/17 09:41:37;;;;;;;14.43;9.82;;;5.00;99.90;;;;;;5050007;28;20219;-69
2022/01/17 09:44:09;;;;;;;13.98;9.27;;;5.00;99.90;;;;;;5050301;28;20637;-69
2022/01/17 09:46:43;;;;;;;15.15;9.85;;;5.00;99.90;;;;;;5046100;28;20304;-69
2022/01/17 09:49:23;;;;;;;15.85;9.48;;;5.00;99.90;;;;;;5030175;28;20251;-69
2022/01/17 09:54:48;;;;;;;14.38;9.70;;;5.00;99.90;;;;;;5011160;28;20857;-69
2022/01/17 09:57:17;;;;;;;14.88;9.15;;;5.00;99.90;;;;;;5049236;28;20593;-69
2022/01/17 09:59:47;;;;;;;14.30;10.35;;;5.00;99.90;;;;;;5049225;28;20226;-69
2022/01/17 10:02:16;;;;;;;22.25;12.43;;;5.00;99.90;;;;;;5044914;28;20192;-69
2022/01/17 10:04:45;;;;;;;16.17;11.38;;;5.00;99.90;;;;;;5049212;28;20213;-69
2022/01/17 10:07:13;;;;;;;16.80;10.18;;;5.00;99.90;;;;;;5048947;28;20219;-69
2022/01/17 10:09:54;;;;;;;17.10;10.95;;;5.00;99.90;;;;;;5042478;28;20224;-69
2022/01/17 10:12:22;;;;;;;12.40;8.10;;;5.00;99.90;;;;;;5045046;28;20196;-69
2022/01/17 10:14:58;;;;;;;18.55;9.45;;;5.00;99.90;;;;;;5046621;28;20232;-69
2022/01/17 10:17:43;;;;;;;16.42;10.80;;;5.00;99.90;;;;;;5049038;28;20220;-69
2022/01/17 10:20:17;;;;;;;13.65;9.35;;;5.00;99.90;;;;;;5042284;28;20262;-69
2022/01/17 10:22:52;;;;;;;13.82;9.05;;;5.00;99.90;;;;;;5049303;28;20242;-69
2022/01/17 10:25:36;;;;;;;15.05;10.30;;;5.00;99.90;;;;;;5048122;28;20228;-69
2022/01/17 10:37:10;;;;;;;14.25;10.23;;;5.00;99.90;;;;;;5004934;28;20313;-51
2022/01/17 10:39:56;;;;;;;13.75;9.68;;;5.00;99.90;;;;;;5003721;28;20295;-50
2022/01/17 10:42:34;;;;;;;15.65;10.27;;;5.00;99.90;;;;;;4997861;28;20197;-51
2022/01/17 10:45:07;;;;;;;21.63;9.48;;;5.00;99.90;;;;;;5002692;28;20279;-51
2022/01/17 10:47:43;;;;;;;14.30;8.93;;;5.00;99.90;;;;;;4995115;28;20251;-51
2022/01/17 10:50:16;;;;;;;14.18;9.32;;;5.10;99.90;;;;;;5002972;28;20225;-52
2022/01/17 10:52:50;;;;;;;11.45;8.80;;;5.00;99.90;;;;;;5003779;28;20491;-51
2022/01/17 10:55:20;;;;;;;15.55;9.98;;;5.00;99.90;;;;;;5003354;28;20209;-51
2022/01/17 10:57:51;;;;;;;21.40;10.75;;;5.00;99.90;;;;;;4997284;28;20565;-50
2022/01/17 11:00:23;;;;;;;15.30;10.32;;;5.10;99.90;;;;;;4989957;28;20221;-51
2022/01/17 11:02:55;;;;;;;13.70;10.23;;;5.10;99.90;;;;;;4994484;28;20190;-52
2022/01/17 11:05:27;;;;;;;18.48;10.75;;;5.10;99.90;;;;;;5003021;28;20217;-51
2022/01/17 11:07:58;;;;;;;17.30;10.85;;;5.10;99.90;;;;;;5003400;28;20201;-51
2022/01/17 11:10:31;;;;;;;15.55;10.32;;;5.00;99.90;;;;;;4990482;28;20234;-52
2022/01/17 11:13:03;;;;;;;16.70;10.43;;;5.10;99.90;;;;;;5004472;28;20328;-51
2022/01/17 11:15:34;;;;;;;12.55;8.65;;;5.10;99.90;;;;;;5003596;28;20229;-50
2022/01/17 11:18:17;;;;;;;17.45;10.15;;;5.10;99.90;;;;;;5002309;28;20301;-51
2022/01/17 11:20:47;;;;;;;14.45;10.30;;;5.10;99.90;;;;;;5023405;28;20225;-52
2022/01/17 11:23:21;;;;;;;15.02;9.93;;;5.10;99.90;;;;;;5023990;28;20205;-52
2022/01/17 11:25:54;;;;;;;15.82;9.80;;;5.10;99.90;;;;;;5020614;28;20205;-52
2022/01/17 11:28:26;;;;;;;14.90;9.85;;;5.10;99.90;;;;;;5016346;28;20455;-52
2022/01/17 11:31:05;;;;;;;15.65;9.30;;;5.10;99.90;;;;;;5022027;28;20220;-51
2022/01/17 11:33:37;;;;;;;15.85;10.60;;;5.10;99.90;;;;;;5018806;28;20224;-51
2022/01/17 11:36:08;;;;;;;18.38;10.15;;;5.10;99.90;;;;;;5022793;28;20255;-52
2022/01/17 11:38:44;;;;;;;15.50;9.55;;;5.10;99.90;;;;;;5021074;28;20227;-51
2022/01/17 11:41:24;;;;;;;14.20;10.25;;;5.10;99.90;;;;;;5003036;28;20584;-52
2022/01/17 11:43:58;;;;;;;14.82;8.98;;;5.10;99.90;;;;;;5007841;28;20247;-50
2022/01/17 11:46:29;;;;;;;17.40;10.57;;;5.10;99.90;;;;;;5005911;28;20189;-52
2022/01/17 11:49:02;;;;;;;16.92;9.30;;;5.10;99.90;;;;;;5007779;28;20308;-51
2022/01/17 11:51:40;;;;;;;16.67;9.50;;;5.10;99.90;;;;;;5010371;28;20222;-50
2022/01/17 11:54:11;;;;;;;16.58;9.68;;;5.10;99.90;;;;;;5003514;28;20271;-51
2022/01/17 11:56:47;;;;;;;15.48;9.57;;;5.10;99.90;;;;;;5005996;28;20730;-51
2022/01/17 11:59:39;;;;;;;12.93;10.05;;;5.10;99.90;;;;;;5009007;28;20225;-51
2022/01/17 12:02:22;;;;;;;16.45;11.35;;;5.10;99.90;;;;;;4998823;28;20249;-51
2022/01/17 12:05:43;;;;;;;15.77;10.52;;;5.10;99.90;;;;;;5006693;28;20608;-51
2022/01/17 12:08:21;;;;;;;19.52;10.55;;;5.10;99.90;;;;;;5007916;28;20728;-51
2022/01/17 12:10:59;;;;;;;12.90;10.43;;;5.10;99.90;;;;;;5007108;28;20758;-51
2022/01/17 12:13:37;;;;;;;15.02;9.30;;;5.10;99.90;;;;;;4996800;28;20676;-52
2022/01/17 12:16:11;;;;;;;14.88;9.68;;;5.10;99.90;;;;;;5007986;28;20202;-52
2022/01/17 12:18:42;;;;;;;14.00;9.80;;;5.10;99.90;;;;;;5002878;28;20308;-51
2022/01/17 12:21:32;;;;;;;16.98;9.65;;;5.10;99.90;;;;;;5009534;28;20197;-51
2022/01/17 12:24:32;;;;;;;17.33;11.38;;;5.10;99.90;;;;;;5008859;28;20232;-51
2022/01/17 12:27:19;;;;;;;16.00;11.40;;;5.10;99.90;;;;;;5007632;28;20197;-51
2022/01/17 12:29:56;;;;;;;16.98;10.40;;;5.10;99.90;;;;;;5007323;28;20739;-51
2022/01/17 12:32:54;;;;;;;14.98;10.32;;;5.10;99.90;;;;;;4997576;28;20317;-51
2022/01/17 12:35:29;;;;;;;14.48;9.60;;;5.10;99.90;;;;;;4994832;28;20221;-51
2022/01/17 12:38:07;;;;;;;15.25;9.75;;;5.10;99.90;;;;;;5009348;28;20551;-51
2022/01/17 12:41:01;;;;;;;15.73;8.48;;;5.10;99.90;;;;;;5003269;28;20221;-51
2022/01/17 12:43:32;;;;;;;13.18;9.13;;;5.10;99.90;;;;;;5008436;28;20707;-51
2022/01/17 12:46:04;;;;;;;14.93;9.40;;;5.10;99.90;;;;;;5007756;28;20728;-51
2022/01/17 12:48:34;;;;;;;13.35;9.98;;;5.10;99.90;;;;;;5003745;28;20222;-51
2022/01/17 12:51:07;;;;;;;13.75;9.30;;;5.10;99.90;;;;;;5007769;28;20217;-50
2022/01/17 12:53:36;;;;;;;13.30;8.98;;;5.10;99.90;;;;;;5006873;28;20224;-51
2022/01/17 12:56:07;;;;;;;14.20;10.18;;;5.10;99.90;;;;;;5000084;28;20198;-52
2022/01/17 12:58:41;;;;;;;12.93;9.43;;;5.10;99.90;;;;;;5007797;28;20623;-52
2022/01/17 13:01:12;;;;;;;13.60;9.80;;;5.10;99.90;;;;;;5007271;28;20198;-52
2022/01/17 13:03:44;;;;;;;16.95;9.70;;;5.10;99.90;;;;;;4995926;28;20566;-51
2022/01/17 13:06:15;;;;;;;13.05;9.35;;;5.10;99.90;;;;;;5007485;28;20209;-51
2022/01/17 13:08:48;;;;;;;17.00;11.02;;;5.10;99.90;;;;;;5007071;28;20222;-51
2022/01/17 13:11:22;;;;;;;15.57;9.48;;;5.10;99.90;;;;;;5004414;28;20830;-51
2022/01/17 13:13:53;;;;;;;14.10;9.75;;;5.10;99.90;;;;;;5008352;28;20268;-51
2022/01/17 13:16:23;;;;;;;11.85;9.07;;;5.10;99.90;;;;;;5007307;28;20207;-50
2022/01/17 13:18:57;;;;;;;11.85;9.15;;;5.10;99.90;;;;;;5007864;28;20762;-51
2022/01/17 13:21:26;;;;;;;11.93;9.27;;;5.10;99.90;;;;;;5008769;28;20248;-51
2022/01/17 13:24:01;;;;;;;14.45;9.90;;;5.10;99.90;;;;;;5005824;28;20225;-51
2022/01/17 13:26:35;;;;;;;17.10;10.02;;;5.10;99.90;;;;;;5001609;28;20196;-51
2022/01/17 13:29:10;;;;;;;13.23;10.35;;;5.10;99.90;;;;;;5007707;28;20280;-51